Time;durP1;ratioP1;P1;durP2;ratioP2;P2;SDS_P1;SDS_P2;PMS_P1;PMS_P2;Temp;Humidity;BMP_temperature;BMP_pressure;BME280_temperature;BME280_humidity;BME280_pressure;Samples;Min_cycle;Max_cycle;Signal;HPM_P1;HPM_P2
2023/02/27 00:00:15;;;;;;;7.80;4.97;;;0.10;99.90;;;;;;5094035;28;20486;-66
2023/02/27 00:02:43;;;;;;;8.27;4.68;;;0.10;99.90;;;;;;5093888;28;20028;-66
2023/02/27 00:05:09;;;;;;;10.13;4.70;;;0.10;99.90;;;;;;5093785;28;20436;-66
2023/02/27 00:07:34;;;;;;;6.25;4.70;;;0.10;99.90;;;;;;5093832;28;20020;-66
2023/02/27 00:10:00;;;;;;;7.55;4.55;;;0.10;99.90;;;;;;5093762;28;20020;-66
2023/02/27 00:12:25;;;;;;;12.52;5.40;;;0.10;99.90;;;;;;5093686;28;20028;-66
2023/02/27 00:14:51;;;;;;;10.57;4.80;;;0.10;99.90;;;;;;5093710;28;20433;-66
2023/02/27 00:17:16;;;;;;;9.98;5.03;;;0.10;99.90;;;;;;5093781;28;20031;-66
2023/02/27 00:19:42;;;;;;;9.82;4.90;;;0.00;99.90;;;;;;5093606;28;20028;-66
2023/02/27 00:22:07;;;;;;;8.25;4.63;;;0.00;99.90;;;;;;5093566;28;20032;-66
2023/02/27 00:24:33;;;;;;;8.30;5.05;;;0.00;99.90;;;;;;5093470;28;20078;-66
2023/02/27 00:26:58;;;;;;;10.40;5.88;;;0.00;99.90;;;;;;5093758;28;20024;-66
2023/02/27 00:29:24;;;;;;;9.18;4.90;;;0.10;99.90;;;;;;5093520;28;20081;-66
2023/02/27 00:31:49;;;;;;;12.27;4.90;;;0.00;99.90;;;;;;5093659;28;20032;-66
2023/02/27 00:34:15;;;;;;;7.95;4.70;;;0.00;99.90;;;;;;5093783;28;20106;-66
2023/02/27 00:36:41;;;;;;;6.38;4.72;;;0.00;99.90;;;;;;5093360;28;20359;-66
2023/02/27 00:39:06;;;;;;;9.90;4.55;;;0.00;99.90;;;;;;5093546;28;20027;-66
2023/02/27 00:41:32;;;;;;;9.93;4.20;;;0.00;99.90;;;;;;5093376;28;20024;-66
2023/02/27 00:43:57;;;;;;;7.45;4.57;;;0.00;99.90;;;;;;5093142;28;20359;-66
2023/02/27 00:46:23;;;;;;;8.25;4.13;;;-0.10;99.90;;;;;;5093165;28;20082;-66
2023/02/27 00:48:48;;;;;;;10.60;4.53;;;0.00;99.90;;;;;;5093585;28;20493;-66
2023/02/27 00:51:14;;;;;;;8.63;4.15;;;-0.10;99.90;;;;;;5093088;28;20115;-66
2023/02/27 00:53:39;;;;;;;9.73;4.60;;;-0.10;99.90;;;;;;5093158;28;20028;-66
2023/02/27 00:56:05;;;;;;;14.05;4.60;;;-0.20;99.90;;;;;;5093246;28;20046;-66
2023/02/27 00:58:31;;;;;;;7.97;4.60;;;-0.20;99.90;;;;;;5093383;28;20025;-67
2023/02/27 01:00:58;;;;;;;8.27;5.13;;;-0.20;99.90;;;;;;5093373;28;20157;-66
2023/02/27 01:03:24;;;;;;;11.63;5.35;;;-0.30;99.90;;;;;;5093300;28;20032;-66
2023/02/27 01:05:50;;;;;;;8.50;4.78;;;-0.40;99.90;;;;;;5093418;28;20051;-66
2023/02/27 01:08:16;;;;;;;8.45;4.60;;;-0.40;99.90;;;;;;5097357;28;20026;-66
2023/02/27 01:10:42;;;;;;;7.10;4.25;;;-0.50;99.90;;;;;;5097183;28;20417;-66
2023/02/27 01:13:07;;;;;;;11.05;4.35;;;-0.50;99.90;;;;;;5097320;28;20035;-66
2023/02/27 01:15:33;;;;;;;7.72;4.40;;;-0.40;99.90;;;;;;5097088;28;20428;-66
2023/02/27 01:17:58;;;;;;;7.70;4.20;;;-0.40;99.90;;;;;;5097687;28;20039;-66
2023/02/27 01:20:24;;;;;;;7.78;4.80;;;-0.50;99.90;;;;;;5096894;28;20393;-66
2023/02/27 01:22:50;;;;;;;9.13;4.60;;;-0.50;99.90;;;;;;5095882;28;20533;-66
2023/02/27 01:25:15;;;;;;;11.00;4.72;;;-0.40;99.90;;;;;;5096954;28;20082;-66
2023/02/27 01:27:41;;;;;;;8.73;4.63;;;-0.40;99.90;;;;;;5096995;28;20140;-66
2023/02/27 01:30:09;;;;;;;14.23;4.90;;;-0.40;99.90;;;;;;5096762;28;20031;-66
2023/02/27 01:32:35;;;;;;;8.20;4.45;;;-0.40;99.90;;;;;;5096902;28;20496;-66
2023/02/27 01:35:00;;;;;;;8.35;4.60;;;-0.40;99.90;;;;;;5096718;28;20024;-66
2023/02/27 01:37:26;;;;;;;11.98;4.78;;;-0.40;99.90;;;;;;5096730;28;20039;-66
2023/02/27 01:39:51;;;;;;;11.20;4.60;;;-0.40;99.90;;;;;;5096751;28;20104;-66
2023/02/27 01:42:23;;;;;;;10.73;4.63;;;-0.40;99.90;;;;;;5096596;28;20032;-66
2023/02/27 01:45:12;;;;;;;9.30;4.53;;;-0.40;99.90;;;;;;5096110;28;20058;-66
2023/02/27 01:47:41;;;;;;;9.20;5.00;;;-0.50;99.90;;;;;;5096413;28;20022;-66
2023/02/27 01:50:09;;;;;;;9.93;5.05;;;-0.50;99.90;;;;;;5096640;28;20081;-66
2023/02/27 01:52:37;;;;;;;8.95;5.10;;;-0.50;99.90;;;;;;5096657;28;20396;-66
2023/02/27 01:55:03;;;;;;;9.77;4.93;;;-0.50;99.90;;;;;;5096377;28;20026;-66
2023/02/27 01:57:29;;;;;;;5.72;4.78;;;-0.50;99.90;;;;;;5096321;28;20542;-66
2023/02/27 01:59:55;;;;;;;8.85;4.80;;;-0.60;99.90;;;;;;5096511;28;20063;-66
2023/02/27 02:02:28;;;;;;;9.05;5.00;;;-0.60;99.90;;;;;;5096242;28;20429;-66
2023/02/27 02:04:54;;;;;;;9.27;4.85;;;-0.60;99.90;;;;;;5096292;28;20028;-66
2023/02/27 02:07:20;;;;;;;12.75;5.20;;;-0.70;99.90;;;;;;5096379;28;20469;-66
2023/02/27 02:09:51;;;;;;;9.57;4.97;;;-0.70;99.90;;;;;;5096310;28;20161;-66
2023/02/27 02:12:22;;;;;;;7.57;4.80;;;-0.70;99.90;;;;;;5096379;28;20027;-66
2023/02/27 02:14:48;;;;;;;8.73;5.00;;;-0.70;99.90;;;;;;5096211;28;20032;-66
2023/02/27 02:17:21;;;;;;;15.15;5.20;;;-0.80;99.90;;;;;;5095409;28;20031;-66
2023/02/27 02:20:06;;;;;;;9.57;5.20;;;-0.80;99.90;;;;;;5096166;28;20039;-66
2023/02/27 02:23:11;;;;;;;10.15;5.20;;;-0.80;99.90;;;;;;5095896;28;20035;-66
2023/02/27 02:26:09;;;;;;;10.07;5.53;;;-0.80;99.90;;;;;;5095549;28;20105;-66
2023/02/27 02:29:14;;;;;;;8.95;5.07;;;-0.80;99.90;;;;;;5095914;28;20112;-66
2023/02/27 02:32:10;;;;;;;11.73;5.65;;;-0.90;99.90;;;;;;5095560;28;20202;-66
2023/02/27 02:35:15;;;;;;;12.60;5.55;;;-0.90;99.90;;;;;;5095608;28;20035;-66
2023/02/27 02:38:20;;;;;;;10.60;5.40;;;-0.90;99.90;;;;;;5095374;28;20050;-66
2023/02/27 02:41:12;;;;;;;9.43;5.38;;;-0.90;99.90;;;;;;5095605;28;20039;-66
2023/02/27 02:49:10;;;;;;;7.32;5.18;;;-0.90;99.90;;;;;;5111209;27;20738;-65
2023/02/27 02:51:47;;;;;;;12.52;5.78;;;-1.00;99.90;;;;;;5111055;28;20023;-65
2023/02/27 02:54:38;;;;;;;11.23;5.35;;;-1.00;99.90;;;;;;5111008;28;20078;-65
2023/02/27 02:57:13;;;;;;;10.60;5.53;;;-1.00;99.90;;;;;;5109871;28;20024;-65
2023/02/27 02:59:54;;;;;;;10.25;5.10;;;-1.00;99.90;;;;;;5110933;28;20110;-65
2023/02/27 03:02:25;;;;;;;8.52;5.43;;;-1.00;99.90;;;;;;5109988;28;20389;-65
2023/02/27 03:05:02;;;;;;;11.30;5.55;;;-1.00;99.90;;;;;;5109975;28;20056;-66
2023/02/27 03:07:52;;;;;;;13.60;5.95;;;-1.00;99.90;;;;;;5110965;28;20085;-65
2023/02/27 03:10:28;;;;;;;9.90;5.13;;;-1.30;99.90;;;;;;5110676;28;20081;-65
2023/02/27 03:13:01;;;;;;;13.27;5.50;;;-1.50;99.90;;;;;;5110895;28;20023;-65
2023/02/27 03:15:33;;;;;;;10.02;5.65;;;-1.70;99.90;;;;;;5110724;28;20031;-65
2023/02/27 03:18:17;;;;;;;9.70;5.90;;;-1.70;99.90;;;;;;5110613;28;20073;-65
2023/02/27 03:20:51;;;;;;;6.82;4.90;;;-1.90;99.90;;;;;;5110500;28;20032;-66
2023/02/27 03:23:22;;;;;;;9.85;5.65;;;-2.00;99.90;;;;;;5109381;28;20033;-65
2023/02/27 03:25:50;;;;;;;12.63;6.25;;;-2.10;99.90;;;;;;5109372;28;20035;-65
2023/02/27 03:28:20;;;;;;;10.90;5.55;;;-2.20;99.90;;;;;;5110315;28;20028;-65
2023/02/27 03:30:57;;;;;;;10.45;6.38;;;-2.30;99.90;;;;;;5110517;28;20012;-65
2023/02/27 03:33:29;;;;;;;14.32;6.68;;;-2.40;99.90;;;;;;5110357;28;20105;-65
2023/02/27 03:36:36;;;;;;;12.40;6.15;;;-2.40;99.90;;;;;;5110271;28;20028;-66
2023/02/27 03:39:10;;;;;;;16.23;6.07;;;-2.40;99.90;;;;;;5110103;28;20111;-65
2023/02/27 03:41:51;;;;;;;11.27;6.40;;;-2.50;99.90;;;;;;5110104;28;20035;-65
2023/02/27 03:44:54;;;;;;;11.38;6.13;;;-2.50;99.90;;;;;;5110313;28;20047;-65
2023/02/27 03:47:20;;;;;;;;;;;-2.60;99.90;;;;;;5110299;28;20043;-66
2023/02/27 03:49:46;;;;;;;10.30;6.43;;;-2.60;99.90;;;;;;5110145;28;19908;-65
2023/02/27 03:52:11;;;;;;;12.18;6.35;;;-2.70;99.90;;;;;;5109931;28;20103;-65
2023/02/27 03:54:54;;;;;;;10.93;6.22;;;-2.60;99.90;;;;;;5109879;28;20035;-65
2023/02/27 03:57:19;;;;;;;11.35;6.13;;;-2.30;99.90;;;;;;5109844;28;20050;-65
2023/02/27 03:59:45;;;;;;;14.57;6.10;;;-2.00;99.90;;;;;;5099542;28;20035;-65
2023/02/27 04:02:11;;;;;;;10.23;5.93;;;-1.90;99.90;;;;;;5096186;28;20520;-65
2023/02/27 04:04:37;;;;;;;11.90;5.78;;;-1.80;99.90;;;;;;5096162;28;20389;-65
2023/02/27 04:07:28;;;;;;;19.65;5.70;;;-1.60;99.90;;;;;;5096292;28;20469;-65
2023/02/27 04:10:33;;;;;;;9.60;5.40;;;-1.50;99.90;;;;;;5095953;28;20024;-65
2023/02/27 04:13:23;;;;;;;9.52;5.75;;;-1.30;99.90;;;;;;5095917;28;20482;-65
2023/02/27 04:16:17;;;;;;;11.85;5.22;;;-1.30;99.90;;;;;;5095957;28;20024;-65
2023/02/27 04:19:23;;;;;;;9.48;5.03;;;-1.20;99.90;;;;;;5095937;28;20397;-65
2023/02/27 04:24:43;;;;;;;10.23;5.35;;;-1.20;99.90;;;;;;5090848;28;20433;-65
2023/02/27 04:27:38;;;;;;;9.93;5.50;;;-1.20;99.90;;;;;;5090997;28;20033;-65
2023/02/27 04:30:25;;;;;;;11.88;5.28;;;-1.30;99.90;;;;;;5090843;28;20371;-65
2023/02/27 04:33:15;;;;;;;10.32;4.90;;;-1.60;99.90;;;;;;5090735;28;20024;-65
2023/02/27 04:36:04;;;;;;;14.50;6.03;;;-1.50;99.90;;;;;;5090558;28;20440;-65
2023/02/27 04:38:54;;;;;;;12.00;5.28;;;-1.50;99.90;;;;;;5090453;28;20074;-65
2023/02/27 04:41:27;;;;;;;11.93;5.60;;;-1.50;99.90;;;;;;5090473;28;20025;-65
2023/02/27 04:43:53;;;;;;;6.05;4.22;;;-1.50;99.90;;;;;;5090406;28;20031;-65
2023/02/27 04:46:23;;;;;;;9.65;5.05;;;-1.50;99.90;;;;;;5090684;28;20064;-65
2023/02/27 04:49:13;;;;;;;11.48;5.20;;;-1.50;99.90;;;;;;5090444;28;20016;-65
2023/02/27 04:51:47;;;;;;;13.98;5.60;;;-1.50;99.90;;;;;;5090126;28;20016;-65
2023/02/27 04:54:17;;;;;;;12.55;4.95;;;-1.50;99.90;;;;;;5090041;28;20033;-65
2023/02/27 04:56:48;;;;;;;8.63;4.95;;;-1.50;99.90;;;;;;5090356;28;20123;-65
2023/02/27 04:59:19;;;;;;;9.93;5.25;;;-1.50;99.90;;;;;;5090333;28;20028;-65
2023/02/27 05:01:54;;;;;;;10.35;5.97;;;-1.50;99.90;;;;;;5090264;28;20032;-65
2023/02/27 05:04:21;;;;;;;9.43;5.43;;;-1.50;99.90;;;;;;5089979;28;20536;-65
2023/02/27 05:06:49;;;;;;;13.13;5.85;;;-1.50;99.90;;;;;;5090120;28;20016;-65
2023/02/27 05:09:41;;;;;;;10.45;4.80;;;-1.60;99.90;;;;;;5090141;28;20016;-65
2023/02/27 05:12:31;;;;;;;11.63;5.45;;;-1.50;99.90;;;;;;5089678;28;20107;-65
2023/02/27 05:15:06;;;;;;;9.38;5.32;;;-1.60;99.90;;;;;;5088876;28;20021;-65
2023/02/27 05:18:06;;;;;;;11.30;5.40;;;-1.60;99.90;;;;;;5088596;28;20016;-65
2023/02/27 05:20:47;;;;;;;14.05;6.00;;;-1.60;99.90;;;;;;5089925;28;20028;-65
2023/02/27 05:23:40;;;;;;;13.45;5.93;;;-1.60;99.90;;;;;;5089392;28;20551;-65
2023/02/27 05:26:19;;;;;;;13.13;5.67;;;-1.70;99.90;;;;;;5088787;28;20020;-65
2023/02/27 05:28:59;;;;;;;11.75;5.97;;;-1.70;99.90;;;;;;5089648;28;20020;-65
2023/02/27 05:31:40;;;;;;;12.95;5.75;;;-1.70;99.90;;;;;;5088407;28;20016;-65
2023/02/27 05:34:12;;;;;;;11.32;6.85;;;-1.70;99.90;;;;;;5085963;28;20416;-65
2023/02/27 05:37:06;;;;;;;12.13;6.38;;;-1.70;99.90;;;;;;5076092;28;20074;-65
2023/02/27 05:39:37;;;;;;;12.98;6.60;;;-1.60;99.90;;;;;;5075826;28;20086;-65
2023/02/27 05:42:08;;;;;;;11.30;6.53;;;-1.60;99.90;;;;;;5075923;28;20070;-65
2023/02/27 05:44:39;;;;;;;10.68;6.90;;;-1.70;99.90;;;;;;5074804;28;20024;-65
2023/02/27 05:47:09;;;;;;;11.32;6.32;;;-1.70;99.90;;;;;;5075769;28;20020;-65
2023/02/27 05:49:48;;;;;;;9.75;6.07;;;-1.60;99.90;;;;;;5075714;28;20059;-65
2023/02/27 05:52:17;;;;;;;19.88;7.07;;;-1.70;99.90;;;;;;5075666;28;20486;-65
2023/02/27 05:54:48;;;;;;;12.10;6.65;;;-1.70;99.90;;;;;;5075628;28;20027;-65
2023/02/27 05:57:20;;;;;;;12.77;7.57;;;-1.70;99.90;;;;;;5075754;28;20416;-65
2023/02/27 05:59:53;;;;;;;15.80;6.93;;;-1.70;99.90;;;;;;5075546;28;20081;-65
2023/02/27 06:02:19;;;;;;;12.73;6.57;;;-1.70;99.90;;;;;;5075497;28;20025;-65
2023/02/27 06:04:45;;;;;;;14.85;6.78;;;-1.70;99.90;;;;;;5075422;28;20050;-65
2023/02/27 06:07:13;;;;;;;13.50;6.63;;;-1.60;99.90;;;;;;5075546;28;20078;-65
2023/02/27 06:09:40;;;;;;;14.60;7.13;;;-1.70;99.90;;;;;;5075469;28;20021;-65
2023/02/27 06:12:05;;;;;;;14.52;7.05;;;-1.70;99.90;;;;;;5075332;28;20078;-65
2023/02/27 06:14:31;;;;;;;12.40;7.25;;;-1.60;99.90;;;;;;5075155;28;20099;-65
2023/02/27 06:16:56;;;;;;;13.40;7.50;;;-1.70;99.90;;;;;;5074937;28;20029;-65
2023/02/27 06:19:22;;;;;;;20.77;7.78;;;-1.70;99.90;;;;;;5075407;28;20028;-67
2023/02/27 06:21:48;;;;;;;9.38;5.90;;;-1.70;99.90;;;;;;5075083;28;20363;-65
2023/02/27 06:24:14;;;;;;;14.88;7.22;;;-1.70;99.90;;;;;;5074813;28;20076;-66
2023/02/27 06:26:39;;;;;;;15.30;7.78;;;-1.70;99.90;;;;;;5074979;28;20453;-65
2023/02/27 06:29:05;;;;;;;14.52;7.45;;;-1.60;99.90;;;;;;5075014;28;20063;-65
2023/02/27 06:31:30;;;;;;;12.27;6.78;;;-1.60;99.90;;;;;;5074545;28;20115;-65
2023/02/27 06:33:56;;;;;;;13.05;7.00;;;-1.50;99.90;;;;;;5075059;28;20031;-65
2023/02/27 06:36:22;;;;;;;12.77;8.15;;;-1.40;99.90;;;;;;5075033;28;20032;-65
2023/02/27 06:38:48;;;;;;;15.55;7.80;;;-1.40;99.90;;;;;;5073538;28;20501;-66
2023/02/27 06:41:14;;;;;;;13.57;7.47;;;-1.30;99.90;;;;;;5074676;28;20052;-66
2023/02/27 06:43:40;;;;;;;16.85;8.20;;;-1.20;99.90;;;;;;5074572;28;20534;-66
2023/02/27 06:46:06;;;;;;;11.77;7.68;;;-1.00;99.90;;;;;;5073786;28;20077;-65
2023/02/27 06:48:31;;;;;;;12.43;7.63;;;-0.90;99.90;;;;;;5074591;28;20367;-66
2023/02/27 06:50:57;;;;;;;14.13;7.45;;;-0.60;99.90;;;;;;5074211;28;20024;-66
2023/02/27 06:53:24;;;;;;;13.95;7.35;;;-0.50;99.90;;;;;;5073939;28;20027;-66
2023/02/27 06:55:49;;;;;;;14.15;7.28;;;-0.60;99.90;;;;;;5074419;28;20094;-65
2023/02/27 06:58:16;;;;;;;12.38;7.13;;;-0.70;99.90;;;;;;5074574;28;20075;-65
2023/02/27 07:00:42;;;;;;;14.65;7.63;;;-0.60;99.90;;;;;;5074183;28;20502;-65
2023/02/27 07:03:08;;;;;;;10.05;7.03;;;-0.60;99.90;;;;;;5073907;28;20067;-65
2023/02/27 07:05:33;;;;;;;17.23;6.80;;;-0.40;99.90;;;;;;5074264;28;20058;-65
2023/02/27 07:07:59;;;;;;;13.80;6.90;;;0.00;99.90;;;;;;5073876;28;20029;-66
2023/02/27 07:10:25;;;;;;;14.40;6.80;;;0.90;99.90;;;;;;5072992;28;20367;-65
2023/02/27 07:12:50;;;;;;;12.45;6.40;;;1.60;99.90;;;;;;5073619;28;20483;-65
2023/02/27 07:15:17;;;;;;;9.77;6.60;;;1.70;99.90;;;;;;5073939;28;20028;-65
2023/02/27 07:17:43;;;;;;;10.10;6.00;;;1.80;99.90;;;;;;5072826;28;20093;-65
2023/02/27 07:20:09;;;;;;;9.25;5.30;;;1.90;99.90;;;;;;5073815;28;20028;-65
2023/02/27 07:22:36;;;;;;;8.43;5.78;;;2.20;99.90;;;;;;5073717;28;20541;-65
2023/02/27 07:25:02;;;;;;;9.35;6.05;;;2.70;99.90;;;;;;5073753;28;20021;-66
2023/02/27 07:27:28;;;;;;;13.15;7.40;;;2.80;99.90;;;;;;5073807;28;20128;-66
2023/02/27 07:29:53;;;;;;;12.73;5.85;;;2.70;99.90;;;;;;5073973;28;20063;-65
2023/02/27 07:32:19;;;;;;;10.52;6.07;;;2.70;99.90;;;;;;5073552;28;20414;-65
2023/02/27 07:34:45;;;;;;;10.23;5.60;;;2.70;99.90;;;;;;5072539;28;20025;-65
2023/02/27 07:37:10;;;;;;;11.73;6.10;;;2.50;99.90;;;;;;5062580;28;20044;-65
2023/02/27 07:39:36;;;;;;;11.80;6.18;;;2.60;99.90;;;;;;5073019;28;20047;-66
2023/02/27 07:42:01;;;;;;;10.52;6.55;;;3.40;99.90;;;;;;5060433;28;20371;-66
2023/02/27 07:44:27;;;;;;;10.98;6.05;;;3.40;99.90;;;;;;5070547;28;20040;-66
2023/02/27 07:46:52;;;;;;;11.40;5.97;;;3.70;99.90;;;;;;5056975;28;20037;-65
2023/02/27 07:49:18;;;;;;;12.18;6.15;;;4.30;99.90;;;;;;5066867;28;20025;-67
2023/02/27 07:51:43;;;;;;;9.02;6.32;;;3.60;99.90;;;;;;5064397;28;20035;-65
2023/02/27 07:54:09;;;;;;;8.35;5.40;;;3.60;99.90;;;;;;5064041;28;20115;-68
2023/02/27 07:56:34;;;;;;;8.77;5.70;;;3.70;99.90;;;;;;5062255;28;20029;-67
2023/02/27 07:59:00;;;;;;;12.18;5.78;;;3.70;99.90;;;;;;5065782;28;20032;-66
2023/02/27 08:01:26;;;;;;;8.88;5.28;;;4.40;99.90;;;;;;5070118;28;20044;-67
2023/02/27 08:03:51;;;;;;;9.75;5.25;;;4.80;99.90;;;;;;5065005;28;20398;-67
2023/02/27 08:06:17;;;;;;;10.35;4.50;;;5.10;99.90;;;;;;5063148;28;20025;-66
2023/02/27 08:08:43;;;;;;;9.23;4.57;;;4.60;99.90;;;;;;5064098;28;20025;-66
2023/02/27 08:11:09;;;;;;;11.43;4.63;;;5.30;99.90;;;;;;5064821;28;20051;-67
2023/02/27 08:13:34;;;;;;;11.80;5.50;;;4.40;99.90;;;;;;5055432;28;20513;-66
2023/02/27 08:16:00;;;;;;;7.25;4.07;;;5.00;99.90;;;;;;5053374;28;20029;-66
2023/02/27 08:18:25;;;;;;;11.70;4.75;;;4.70;99.90;;;;;;5069404;28;20039;-67
2023/02/27 08:20:54;;;;;;;8.73;4.97;;;4.80;99.90;;;;;;5069293;28;20040;-65
2023/02/27 08:23:20;;;;;;;7.68;4.10;;;5.10;99.90;;;;;;5068232;28;20087;-64
2023/02/27 08:25:45;;;;;;;8.63;4.47;;;6.30;99.90;;;;;;5070280;28;20463;-64
2023/02/27 08:28:11;;;;;;;11.32;5.20;;;6.80;99.90;;;;;;5059600;28;20375;-64
2023/02/27 08:30:37;;;;;;;9.85;4.68;;;7.10;99.90;;;;;;5068927;28;20120;-65
2023/02/27 08:33:02;;;;;;;8.95;4.30;;;6.70;99.90;;;;;;5070739;28;20028;-64
2023/02/27 08:35:28;;;;;;;8.90;4.90;;;6.70;99.90;;;;;;5066469;28;20434;-65
2023/02/27 08:37:53;;;;;;;7.85;4.60;;;6.90;99.90;;;;;;5070112;28;20511;-64
2023/02/27 08:40:19;;;;;;;7.05;3.92;;;7.50;99.90;;;;;;5066858;28;20025;-65
2023/02/27 08:42:44;;;;;;;8.70;4.00;;;8.80;99.90;;;;;;5067174;28;20119;-65
2023/02/27 08:45:10;;;;;;;8.38;4.00;;;9.60;99.90;;;;;;5060975;28;20137;-63
2023/02/27 08:47:36;;;;;;;10.05;4.35;;;9.50;99.90;;;;;;5063641;28;20036;-65
2023/02/27 08:50:02;;;;;;;9.02;4.18;;;7.70;99.90;;;;;;5060678;28;20021;-62
2023/02/27 08:52:28;;;;;;;9.38;4.00;;;7.70;99.90;;;;;;5059752;28;20025;-62
2023/02/27 08:54:53;;;;;;;7.03;4.65;;;7.90;99.90;;;;;;5067220;28;20391;-62
2023/02/27 08:57:19;;;;;;;7.38;4.32;;;8.40;99.90;;;;;;5066985;28;20029;-67
2023/02/27 08:59:44;;;;;;;11.73;4.68;;;8.40;99.90;;;;;;5072810;28;20029;-63
2023/02/27 09:02:10;;;;;;;9.27;4.63;;;9.00;99.90;;;;;;5061535;28;20021;-63
2023/02/27 09:04:36;;;;;;;7.20;4.50;;;8.70;99.90;;;;;;5057148;28;20052;-63
2023/02/27 09:07:02;;;;;;;9.75;5.00;;;9.00;99.90;;;;;;5064828;28;20029;-64
2023/02/27 09:09:27;;;;;;;8.82;4.43;;;9.40;99.90;;;;;;5064291;28;20059;-63
2023/02/27 09:11:53;;;;;;;9.48;4.70;;;9.40;99.90;;;;;;5068355;28;20036;-64
2023/02/27 09:14:18;;;;;;;10.32;5.03;;;9.60;99.90;;;;;;5065927;28;20047;-62
2023/02/27 09:16:44;;;;;;;7.47;4.10;;;10.50;99.90;;;;;;5070306;28;20082;-63
2023/02/27 09:19:11;;;;;;;7.65;4.22;;;10.60;99.90;;;;;;5060869;28;20036;-64
2023/02/27 09:21:36;;;;;;;9.63;4.05;;;10.60;99.90;;;;;;5063362;28;20093;-65
2023/02/27 09:24:04;;;;;;;7.95;3.85;;;10.70;99.90;;;;;;5064619;28;20506;-65
2023/02/27 09:26:29;;;;;;;6.25;3.75;;;10.50;99.90;;;;;;5055889;28;20031;-65
2023/02/27 09:28:55;;;;;;;7.13;3.78;;;10.90;99.90;;;;;;5066068;28;20036;-62
2023/02/27 09:31:20;;;;;;;10.65;4.10;;;11.10;99.90;;;;;;5064493;28;20475;-64
2023/02/27 09:33:46;;;;;;;6.72;3.22;;;11.00;99.90;;;;;;5058425;28;20033;-63
2023/02/27 09:36:12;;;;;;;6.43;3.40;;;10.80;99.90;;;;;;5057740;28;20076;-64
2023/02/27 09:38:38;;;;;;;8.07;3.10;;;10.90;99.90;;;;;;5076346;28;20473;-62
2023/02/27 09:41:06;;;;;;;6.95;3.80;;;11.00;99.90;;;;;;5065258;28;20104;-63
2023/02/27 09:43:42;;;;;;;5.88;3.08;;;11.30;99.90;;;;;;5060397;28;20029;-62
2023/02/27 09:46:14;;;;;;;8.40;3.40;;;11.70;98.90;;;;;;5060696;28;20024;-62
2023/02/27 09:48:46;;;;;;;13.02;3.83;;;10.90;99.60;;;;;;5064935;28;20397;-62
2023/02/27 09:51:14;;;;;;;10.37;3.10;;;11.10;99.90;;;;;;5063016;28;20172;-63
2023/02/27 09:53:43;;;;;;;6.75;2.90;;;11.10;99.90;;;;;;5066801;28;20552;-64
2023/02/27 09:56:27;;;;;;;5.20;3.10;;;10.90;99.30;;;;;;5069129;28;20025;-63
2023/02/27 09:59:24;;;;;;;7.32;2.83;;;10.80;99.90;;;;;;5060815;28;20478;-64
2023/02/27 10:02:29;;;;;;;9.30;3.55;;;10.20;99.90;;;;;;5074201;28;20060;-63
2023/02/27 10:05:34;;;;;;;8.00;3.30;;;10.30;99.90;;;;;;5066777;28;20071;-64
2023/02/27 10:08:23;;;;;;;8.10;2.72;;;10.30;99.90;;;;;;5066761;28;20048;-63
2023/02/27 10:11:02;;;;;;;9.18;3.45;;;8.60;99.90;;;;;;5068366;28;20524;-62
2023/02/27 10:13:54;;;;;;;7.75;3.40;;;7.90;99.90;;;;;;5068600;28;20151;-62
2023/02/27 10:16:21;;;;;;;6.60;2.92;;;7.30;99.90;;;;;;5058368;28;20029;-62
2023/02/27 10:18:57;;;;;;;11.85;4.32;;;5.90;99.90;;;;;;5059812;28;20783;-62
2023/02/27 10:21:32;;;;;;;12.48;3.95;;;6.50;99.90;;;;;;5066040;28;20028;-64
2023/02/27 10:26:57;;;;;;;12.10;4.57;;;5.80;99.90;;;;;;5065429;28;20451;-63
2023/02/27 10:29:31;;;;;;;10.20;3.83;;;7.50;99.90;;;;;;5053258;28;20029;-66
2023/02/27 10:32:04;;;;;;;6.78;3.60;;;8.40;99.90;;;;;;5045125;28;20017;-63
2023/02/27 10:34:31;;;;;;;5.82;3.58;;;9.10;99.90;;;;;;5044936;28;20472;-64
2023/02/27 10:37:01;;;;;;;7.70;3.38;;;8.60;99.90;;;;;;5048852;28;20080;-63
2023/02/27 10:39:29;;;;;;;7.70;3.30;;;8.40;99.90;;;;;;5033762;28;20036;-64
2023/02/27 10:42:02;;;;;;;7.38;4.07;;;6.90;99.90;;;;;;5048845;28;20487;-64
2023/02/27 10:44:27;;;;;;;6.75;3.90;;;6.20;99.90;;;;;;5054506;28;20450;-63
2023/02/27 10:46:53;;;;;;;14.88;4.60;;;6.60;99.90;;;;;;5039825;28;20026;-66
2023/02/27 10:49:20;;;;;;;9.95;4.70;;;7.00;99.90;;;;;;5040452;28;20091;-65
2023/02/27 10:52:02;;;;;;;9.18;4.32;;;6.90;99.90;;;;;;5038647;28;20483;-64
2023/02/27 10:54:28;;;;;;;7.07;4.00;;;6.90;99.90;;;;;;5035944;28;20033;-66
2023/02/27 10:56:57;;;;;;;7.95;4.00;;;7.20;99.90;;;;;;5042009;28;20040;-65
2023/02/27 10:59:26;;;;;;;8.23;3.90;;;8.00;99.90;;;;;;5046896;28;20025;-65
2023/02/27 11:01:55;;;;;;;9.68;4.00;;;8.50;99.90;;;;;;5051619;28;20120;-65
2023/02/27 11:04:30;;;;;;;9.85;3.40;;;9.80;99.90;;;;;;5044073;28;20443;-66
2023/02/27 11:06:57;;;;;;;11.20;3.20;;;9.60;99.90;;;;;;5042604;28;20543;-64
2023/02/27 11:09:28;;;;;;;6.45;2.00;;;9.50;99.90;;;;;;5041711;28;20497;-65
2023/02/27 11:11:56;;;;;;;4.82;3.03;;;10.70;99.90;;;;;;5039328;28;20025;-65
2023/02/27 11:14:29;;;;;;;8.20;3.75;;;10.90;99.90;;;;;;5045287;28;20029;-66
2023/02/27 11:16:57;;;;;;;9.15;3.50;;;10.70;99.90;;;;;;5053293;28;20426;-67
2023/02/27 11:19:34;;;;;;;9.02;3.67;;;11.10;99.90;;;;;;5030495;28;20037;-65
2023/02/27 11:22:03;;;;;;;5.20;3.25;;;10.10;99.90;;;;;;5047751;28;20060;-65
2023/02/27 11:24:29;;;;;;;9.98;4.65;;;9.00;99.90;;;;;;5032633;28;20126;-66
2023/02/27 11:26:59;;;;;;;8.20;3.17;;;9.10;99.90;;;;;;5039311;28;20507;-66
2023/02/27 11:29:25;;;;;;;6.40;3.67;;;9.00;99.90;;;;;;5034956;28;20034;-66
2023/02/27 11:31:54;;;;;;;6.07;3.75;;;8.10;99.90;;;;;;5043772;28;20053;-66
2023/02/27 11:34:25;;;;;;;8.00;3.92;;;7.20;99.90;;;;;;5031769;28;20064;-65
2023/02/27 11:36:54;;;;;;;8.05;4.20;;;6.90;99.90;;;;;;5038675;28;20724;-65
2023/02/27 11:39:23;;;;;;;9.38;4.88;;;6.10;99.90;;;;;;5020238;28;20083;-67
2023/02/27 11:41:49;;;;;;;7.25;4.03;;;5.70;99.90;;;;;;5023868;28;20613;-65
2023/02/27 11:44:19;;;;;;;8.68;4.63;;;5.40;99.90;;;;;;5040036;28;20040;-65
2023/02/27 11:46:45;;;;;;;12.07;4.90;;;5.70;99.90;;;;;;5034474;28;20042;-65
2023/02/27 11:49:33;;;;;;;11.35;4.47;;;5.90;99.90;;;;;;5029395;28;20053;-68
2023/02/27 11:52:14;;;;;;;10.95;4.60;;;5.60;99.90;;;;;;5031731;28;20379;-69
2023/02/27 11:54:59;;;;;;;8.30;4.25;;;5.80;99.90;;;;;;5029485;28;20026;-69
2023/02/27 11:57:31;;;;;;;7.50;4.30;;;5.40;99.90;;;;;;5049838;28;20049;-65
2023/02/27 12:00:05;;;;;;;8.38;4.57;;;5.10;99.90;;;;;;5039027;28;20486;-65
2023/02/27 12:03:10;;;;;;;12.88;4.53;;;5.10;99.90;;;;;;5028930;28;20029;-69
2023/02/27 12:05:42;;;;;;;9.38;4.57;;;5.10;99.90;;;;;;5026173;28;20439;-66
2023/02/27 12:08:18;;;;;;;8.00;4.75;;;5.40;99.90;;;;;;5021832;28;20021;-65
2023/02/27 12:10:59;;;;;;;9.95;4.53;;;5.30;99.90;;;;;;5028872;28;20030;-65
2023/02/27 12:13:30;;;;;;;7.93;4.57;;;5.30;99.90;;;;;;5031373;28;20488;-65
2023/02/27 12:16:21;;;;;;;8.18;4.05;;;5.20;99.90;;;;;;5045504;28;20051;-66
2023/02/27 12:18:58;;;;;;;8.32;4.00;;;5.40;99.90;;;;;;5035834;28;20124;-65
2023/02/27 12:21:30;;;;;;;7.35;3.70;;;5.00;99.90;;;;;;5042826;28;20399;-64
2023/02/27 12:24:03;;;;;;;10.18;3.75;;;5.70;99.90;;;;;;5049067;28;20056;-65
2023/02/27 12:26:33;;;;;;;6.53;3.55;;;6.00;99.90;;;;;;5052707;28;20068;-65
2023/02/27 12:29:27;;;;;;;9.40;3.95;;;6.10;99.90;;;;;;5042493;28;20543;-65
2023/02/27 12:32:00;;;;;;;5.90;3.80;;;5.70;99.90;;;;;;5050257;28;20560;-65
2023/02/27 12:34:28;;;;;;;;;;;5.80;99.90;;;;;;5049644;28;20420;-67
2023/02/27 12:36:59;;;;;;;7.97;3.65;;;6.10;99.90;;;;;;5030804;28;19909;-65
2023/02/27 12:39:27;;;;;;;7.97;3.40;;;6.40;99.90;;;;;;5040764;28;20388;-64
2023/02/27 12:42:32;;;;;;;7.22;3.88;;;6.00;99.90;;;;;;5036492;28;20044;-64
2023/02/27 12:45:27;;;;;;;9.23;3.80;;;6.00;99.90;;;;;;5030205;28;20064;-65
2023/02/27 12:48:17;;;;;;;5.72;3.65;;;5.90;99.90;;;;;;5021845;28;20021;-68
2023/02/27 12:51:23;;;;;;;7.43;3.83;;;6.10;99.90;;;;;;5026830;28;20076;-65
2023/02/27 12:54:14;;;;;;;8.80;4.03;;;5.90;99.90;;;;;;5025972;28;20676;-65
2023/02/27 12:59:58;;;;;;;9.90;3.90;;;5.60;99.90;;;;;;5074312;28;20406;-64
2023/02/27 13:02:38;;;;;;;6.88;4.13;;;5.50;99.90;;;;;;5082772;28;20050;-65
2023/02/27 13:05:27;;;;;;;8.75;3.78;;;6.20;99.90;;;;;;5078574;28;20024;-64
2023/02/27 13:08:25;;;;;;;4.72;3.53;;;6.50;99.90;;;;;;5078023;28;20020;-65
2023/02/27 13:11:31;;;;;;;6.22;3.53;;;6.50;99.90;;;;;;5070620;28;20450;-65
2023/02/27 13:14:05;;;;;;;7.32;3.53;;;6.40;99.90;;;;;;5071032;28;20040;-66
2023/02/27 13:16:36;;;;;;;7.90;3.75;;;6.30;99.90;;;;;;5086919;28;20028;-67
2023/02/27 13:19:11;;;;;;;8.95;3.70;;;6.20;99.90;;;;;;5094492;28;20463;-65
2023/02/27 13:21:42;;;;;;;5.53;3.33;;;6.20;99.90;;;;;;5077511;28;20456;-65
2023/02/27 13:24:26;;;;;;;9.40;4.07;;;6.10;99.90;;;;;;5088588;28;21214;-65
2023/02/27 13:27:21;;;;;;;6.57;3.63;;;5.70;99.90;;;;;;5087209;28;20023;-63
2023/02/27 13:30:07;;;;;;;7.38;4.10;;;5.60;99.90;;;;;;5087976;28;20020;-65